createdAt,value
2018-11-11T00:00:20.837Z,50.00
2018-11-11T00:02:51.354Z,50.00
2018-11-11T00:05:21.352Z,50.00
2018-11-11T00:07:50.882Z,50.00
2018-11-11T00:10:20.277Z,50.00
2018-11-11T00:12:50.027Z,50.20
2018-11-11T00:15:19.654Z,50.00
2018-11-11T00:17:49.274Z,50.00
2018-11-11T00:20:18.887Z,50.00
2018-11-11T00:22:48.412Z,50.00
2018-11-11T00:25:17.610Z,50.00
2018-11-11T00:27:46.973Z,50.00
2018-11-11T00:30:17.823Z,50.00
2018-11-11T00:32:47.404Z,50.00
2018-11-11T00:35:16.478Z,50.00
2018-11-11T00:37:45.623Z,50.00
2018-11-11T00:40:15.711Z,50.00
2018-11-11T00:42:45.549Z,50.00
2018-11-11T00:45:15.635Z,50.00
2018-11-11T00:47:45.697Z,50.00
2018-11-11T00:50:14.985Z,50.00
2018-11-11T00:52:44.547Z,50.00
2018-11-11T00:55:15.313Z,50.00
2018-11-11T00:57:45.050Z,50.00
2018-11-11T01:00:16.981Z,50.10
2018-11-11T01:02:46.538Z,50.00
2018-11-11T01:05:16.059Z,50.30
2018-11-11T01:07:45.140Z,50.00
2018-11-11T01:10:15.621Z,50.10
2018-11-11T01:12:45.327Z,50.00
2018-11-11T01:15:15.297Z,50.10
2018-11-11T01:17:44.697Z,50.00
2018-11-11T01:20:14.995Z,50.10
2018-11-11T01:22:44.796Z,50.10
2018-11-11T01:25:15.402Z,50.10
2018-11-11T01:27:44.698Z,50.00
2018-11-11T01:30:14.166Z,50.50
2018-11-11T01:32:43.674Z,50.00
2018-11-11T01:35:13.910Z,50.00
2018-11-11T01:37:43.655Z,50.00
2018-11-11T01:40:13.011Z,50.00
2018-11-11T01:42:42.151Z,50.00
2018-11-11T01:45:16.739Z,50.00
2018-11-11T01:47:46.384Z,50.00
2018-11-11T01:50:15.840Z,50.00
2018-11-11T01:52:45.363Z,50.00
2018-11-11T01:55:14.799Z,50.00
2018-11-11T01:57:44.021Z,50.00
2018-11-11T02:00:15.454Z,50.00
2018-11-11T02:02:45.167Z,50.00
2018-11-11T02:05:14.660Z,50.00
2018-11-11T02:07:44.950Z,50.00
2018-11-11T02:10:14.300Z,50.00
2018-11-11T02:12:44.369Z,50.00
2018-11-11T02:15:14.964Z,50.00
2018-11-11T02:17:44.320Z,50.00
2018-11-11T02:20:17.033Z,50.00
2018-11-11T02:22:46.990Z,50.00
2018-11-11T02:25:16.562Z,50.10
2018-11-11T02:27:45.942Z,50.10
2018-11-11T02:30:16.519Z,50.10
2018-11-11T02:32:45.959Z,50.10
2018-11-11T02:35:15.077Z,50.10
2018-11-11T02:37:44.531Z,50.20
2018-11-11T02:40:18.074Z,50.10
2018-11-11T02:42:48.015Z,50.10
2018-11-11T02:45:18.677Z,50.20
2018-11-11T02:47:48.143Z,50.10
2018-11-11T02:50:18.550Z,50.10
2018-11-11T02:52:48.842Z,50.10
2018-11-11T02:55:18.641Z,50.10
2018-11-11T02:57:48.388Z,50.10
2018-11-11T03:00:20.024Z,50.20
2018-11-11T03:02:49.727Z,50.10
2018-11-11T03:05:19.636Z,50.10
2018-11-11T03:07:49.282Z,50.10
2018-11-11T03:10:19.028Z,50.10
2018-11-11T03:12:49.250Z,50.10
2018-11-11T03:15:19.113Z,50.10
2018-11-11T03:17:48.546Z,50.10
2018-11-11T03:20:18.239Z,50.10
2018-11-11T03:22:47.540Z,50.10
2018-11-11T03:25:17.340Z,50.10
2018-11-11T03:27:47.012Z,50.10
2018-11-11T03:30:17.763Z,50.10
2018-11-11T03:32:46.900Z,50.20
2018-11-11T03:35:16.310Z,50.00
2018-11-11T03:37:46.268Z,50.00
2018-11-11T03:40:17.527Z,50.00
2018-11-11T03:42:47.283Z,50.00
2018-11-11T03:45:17.809Z,50.10
2018-11-11T03:48:17.656Z,50.10
2018-11-11T03:50:46.957Z,50.00
2018-11-11T03:53:16.153Z,50.10
2018-11-11T03:55:45.720Z,50.10
2018-11-11T03:58:14.943Z,50.00
2018-11-11T04:00:44.156Z,50.00
2018-11-11T04:03:13.493Z,50.00
2018-11-11T04:05:42.770Z,50.10
2018-11-11T04:08:11.957Z,50.00
2018-11-11T04:10:41.658Z,50.00
2018-11-11T04:13:10.841Z,50.00
2018-11-11T04:15:40.108Z,50.00
2018-11-11T04:18:09.827Z,49.90
2018-11-11T04:20:38.750Z,49.90
2018-11-11T04:23:07.936Z,50.00
2018-11-11T04:25:37.323Z,50.00
2018-11-11T04:28:06.264Z,50.60
2018-11-11T04:30:35.422Z,49.90
2018-11-11T04:33:05.253Z,50.70
2018-11-11T04:35:34.460Z,50.00
2018-11-11T04:38:03.512Z,49.90
2018-11-11T04:40:33.030Z,49.90
2018-11-11T04:43:02.466Z,50.10
2018-11-11T04:45:31.629Z,50.00
2018-11-11T04:48:00.972Z,50.60
2018-11-11T04:50:29.943Z,50.00
2018-11-11T04:52:59.154Z,50.10
2018-11-11T04:55:28.617Z,49.90
2018-11-11T04:57:57.905Z,50.00
2018-11-11T05:00:26.795Z,49.90
2018-11-11T05:02:56.672Z,50.00
2018-11-11T05:05:25.960Z,50.00
2018-11-11T05:07:54.971Z,49.80
2018-11-11T05:10:24.631Z,49.80
2018-11-11T05:12:53.777Z,50.00
2018-11-11T05:15:23.027Z,50.00
2018-11-11T05:17:52.497Z,49.90
2018-11-11T05:20:21.817Z,49.90
2018-11-11T05:22:51.241Z,49.90
2018-11-11T05:25:21.076Z,49.90
2018-11-11T05:27:50.585Z,50.00
2018-11-11T05:30:20.168Z,50.00
2018-11-11T05:32:49.461Z,50.00
2018-11-11T05:35:18.760Z,50.00
2018-11-11T05:37:48.126Z,50.00
2018-11-11T05:40:17.739Z,50.00
2018-11-11T05:42:47.326Z,50.00
2018-11-11T05:45:16.780Z,50.00
2018-11-11T05:47:46.320Z,50.00
2018-11-11T05:50:16.621Z,50.60
2018-11-11T05:52:46.757Z,50.00
2018-11-11T05:55:16.173Z,50.10
2018-11-11T05:57:45.114Z,50.10
2018-11-11T06:00:15.618Z,50.10
2018-11-11T06:02:45.459Z,49.50
2018-11-11T06:05:15.431Z,50.00
2018-11-11T06:07:44.817Z,50.10
2018-11-11T06:10:15.144Z,50.10
2018-11-11T06:16:16.414Z,50.10
2018-11-11T06:18:45.614Z,50.00
2018-11-11T06:21:14.759Z,50.10
2018-11-11T06:23:44.034Z,50.10
2018-11-11T06:26:13.280Z,50.10
2018-11-11T06:28:42.325Z,50.10
2018-11-11T06:31:11.872Z,50.00
2018-11-11T06:33:41.310Z,50.00
2018-11-11T06:36:10.776Z,50.10
2018-11-11T06:38:40.270Z,50.10
2018-11-11T06:41:09.476Z,50.10
2018-11-11T06:43:38.674Z,50.10
2018-11-11T06:46:08.426Z,50.10
2018-11-11T06:48:37.824Z,50.10
2018-11-11T06:51:06.984Z,50.10
2018-11-11T06:53:36.395Z,50.10
2018-11-11T06:56:05.739Z,50.10
2018-11-11T06:58:35.107Z,50.20
2018-11-11T07:01:04.418Z,50.10
2018-11-11T07:03:56.711Z,50.10
2018-11-11T07:06:26.508Z,50.10
2018-11-11T07:08:55.548Z,50.10
2018-11-11T07:11:24.730Z,50.10
2018-11-11T07:13:54.348Z,50.10
2018-11-11T07:16:23.681Z,50.10
2018-11-11T07:18:52.867Z,50.10
2018-11-11T07:21:22.408Z,50.20
2018-11-11T07:23:51.932Z,50.10
2018-11-11T07:26:21.200Z,50.10
2018-11-11T07:28:50.715Z,50.10
2018-11-11T07:31:20.067Z,50.10
2018-11-11T07:33:49.190Z,50.10
2018-11-11T07:36:18.656Z,50.00
2018-11-11T07:38:48.058Z,50.00
2018-11-11T07:41:16.998Z,50.00
2018-11-11T07:43:46.415Z,50.00
2018-11-11T07:46:15.912Z,50.00
2018-11-11T07:48:45.305Z,50.00
2018-11-11T07:51:14.866Z,50.00
2018-11-11T07:53:44.232Z,50.00
2018-11-11T07:56:13.609Z,50.00
2018-11-11T07:58:43.374Z,50.00
2018-11-11T08:01:12.578Z,50.00
2018-11-11T08:03:41.890Z,50.00
2018-11-11T08:06:11.734Z,49.90
2018-11-11T08:08:41.150Z,50.10
2018-11-11T08:11:21.662Z,50.00
2018-11-11T08:13:50.837Z,50.00
2018-11-11T08:16:20.399Z,50.00
2018-11-11T08:18:50.396Z,50.40
2018-11-11T08:21:19.632Z,49.90
2018-11-11T08:23:48.965Z,50.50
2018-11-11T08:26:18.779Z,49.90
2018-11-11T08:28:48.300Z,49.90
2018-11-11T08:31:17.567Z,49.90
2018-11-11T08:33:47.266Z,49.90
2018-11-11T08:36:16.750Z,50.30
2018-11-11T08:38:46.105Z,49.90
2018-11-11T08:41:15.665Z,49.90
2018-11-11T08:43:44.825Z,50.00
2018-11-11T08:46:14.156Z,49.90
2018-11-11T08:48:43.537Z,50.00
2018-11-11T08:51:12.960Z,50.10
2018-11-11T08:53:41.984Z,50.10
2018-11-11T08:56:11.506Z,50.40
2018-11-11T08:58:40.603Z,50.60
2018-11-11T09:01:09.633Z,50.70
2018-11-11T09:03:39.240Z,50.90
2018-11-11T09:06:08.440Z,51.00
2018-11-11T09:08:37.821Z,51.20
2018-11-11T09:11:07.838Z,51.30
2018-11-11T09:13:37.034Z,51.40
2018-11-11T09:16:06.338Z,51.50
2018-11-11T09:18:35.908Z,51.50
2018-11-11T09:21:05.037Z,51.50
2018-11-11T09:23:34.453Z,51.40
2018-11-11T09:26:03.713Z,51.40
2018-11-11T09:28:33.144Z,51.30
2018-11-11T09:31:02.465Z,51.50
2018-11-11T09:33:31.517Z,51.20
2018-11-11T09:36:00.995Z,51.20
2018-11-11T09:38:30.379Z,51.10
2018-11-11T09:41:00.174Z,51.10
2018-11-11T09:43:29.363Z,51.10
2018-11-11T09:45:58.583Z,51.10
2018-11-11T09:48:27.933Z,51.60
2018-11-11T09:50:57.022Z,52.00
2018-11-11T09:53:26.298Z,52.30
2018-11-11T09:55:55.947Z,52.40
2018-11-11T09:58:25.002Z,52.50
2018-11-11T10:00:54.045Z,52.50
2018-11-11T10:03:28.768Z,52.40
2018-11-11T10:06:04.345Z,52.40
2018-11-11T10:08:43.994Z,52.50
2018-11-11T10:11:48.542Z,52.60
2018-11-11T10:14:30.133Z,52.60
2018-11-11T10:17:03.094Z,52.50
2018-11-11T10:19:40.245Z,52.50
2018-11-11T10:22:28.502Z,52.60
2018-11-11T10:26:06.730Z,52.50
2018-11-11T10:28:40.438Z,52.60
2018-11-11T10:31:21.285Z,52.50
2018-11-11T10:33:56.650Z,52.50
2018-11-11T10:36:44.766Z,52.40
2018-11-11T10:39:20.300Z,53.10
2018-11-11T10:43:58.532Z,52.40
2018-11-11T10:46:33.339Z,52.50
2018-11-11T10:49:04.423Z,52.60
2018-11-11T10:51:33.659Z,52.70
2018-11-11T10:54:03.160Z,52.80
2018-11-11T10:56:32.457Z,52.90
2018-11-11T10:59:01.717Z,52.90
2018-11-11T11:03:38.527Z,52.90
2018-11-11T11:06:07.951Z,52.90
2018-11-11T11:08:37.513Z,52.90
2018-11-11T11:11:06.597Z,52.90
2018-11-11T11:13:36.024Z,53.00
2018-11-11T11:16:05.334Z,53.00
2018-11-11T11:18:34.601Z,53.00
2018-11-11T11:21:03.792Z,53.10
2018-11-11T11:23:33.195Z,53.10
2018-11-11T11:26:03.230Z,53.20
2018-11-11T11:28:32.393Z,53.20
2018-11-11T11:31:02.188Z,53.20
2018-11-11T11:33:31.653Z,53.20
2018-11-11T11:36:01.040Z,53.30
2018-11-11T11:38:30.550Z,53.30
2018-11-11T11:41:00.136Z,53.30
2018-11-11T11:43:29.342Z,53.40
2018-11-11T11:45:58.673Z,53.40
2018-11-11T11:48:28.073Z,53.50
2018-11-11T11:50:57.249Z,53.40
2018-11-11T11:53:26.652Z,53.50
2018-11-11T11:55:56.097Z,53.50
2018-11-11T11:58:27.131Z,53.50
2018-11-11T12:00:57.102Z,53.60
2018-11-11T12:03:26.452Z,53.70
2018-11-11T12:05:55.514Z,53.70
2018-11-11T12:08:25.164Z,53.70
2018-11-11T12:10:54.396Z,53.80
2018-11-11T12:13:23.631Z,53.70
2018-11-11T12:15:53.463Z,53.70
2018-11-11T12:18:22.869Z,53.70
2018-11-11T12:20:52.026Z,53.90
2018-11-11T12:23:21.272Z,53.90
2018-11-11T12:25:50.517Z,53.90
2018-11-11T12:28:19.877Z,53.90
2018-11-11T12:30:49.171Z,53.90
2018-11-11T12:33:18.762Z,53.90
2018-11-11T12:35:48.348Z,53.90
2018-11-11T12:38:18.178Z,53.90
2018-11-11T12:40:47.873Z,53.90
2018-11-11T12:43:17.125Z,53.90
2018-11-11T12:45:46.844Z,53.90
2018-11-11T12:48:16.193Z,53.90
2018-11-11T12:50:45.597Z,53.90
2018-11-11T12:53:15.228Z,54.60
2018-11-11T12:55:44.403Z,53.90
2018-11-11T12:58:13.464Z,53.90
2018-11-11T13:00:43.055Z,53.90
2018-11-11T13:03:11.938Z,53.80
2018-11-11T13:05:41.063Z,53.90
2018-11-11T13:08:10.786Z,53.80
2018-11-11T13:10:39.881Z,53.80
2018-11-11T13:13:09.205Z,53.80
2018-11-11T13:15:39.168Z,53.80
2018-11-11T13:18:08.399Z,54.20
2018-11-11T13:20:37.499Z,53.90
2018-11-11T13:23:07.130Z,53.90
2018-11-11T13:25:36.539Z,53.90
2018-11-11T13:28:05.908Z,53.90
2018-11-11T13:30:35.297Z,54.00
2018-11-11T13:33:04.773Z,54.00
2018-11-11T13:35:33.754Z,53.90
2018-11-11T13:38:03.585Z,53.90
2018-11-11T13:40:32.629Z,54.00
2018-11-11T13:43:02.071Z,53.90
2018-11-11T13:45:31.584Z,53.90
2018-11-11T13:48:00.591Z,53.90
2018-11-11T13:50:29.800Z,54.30
2018-11-11T13:52:59.527Z,53.80
2018-11-11T13:55:28.598Z,53.90
2018-11-11T13:57:57.698Z,54.50
2018-11-11T14:00:27.976Z,53.70
2018-11-11T14:02:57.348Z,53.70
2018-11-11T14:05:26.514Z,53.70
2018-11-11T14:07:55.774Z,53.80
2018-11-11T14:10:25.014Z,53.70
2018-11-11T14:12:54.204Z,53.70
2018-11-11T14:15:24.604Z,53.70
2018-11-11T14:17:54.619Z,53.70
2018-11-11T14:20:24.779Z,53.70
2018-11-11T14:22:55.206Z,53.60
2018-11-11T14:25:26.977Z,53.70
2018-11-11T14:27:56.396Z,53.60
2018-11-11T14:30:27.356Z,53.50
2018-11-11T14:32:57.356Z,53.90
2018-11-11T14:35:26.680Z,53.50
2018-11-11T14:37:56.042Z,53.50
2018-11-11T14:40:28.314Z,53.50
2018-11-11T14:42:57.443Z,53.50
2018-11-11T14:45:27.045Z,53.40
2018-11-11T14:47:56.917Z,53.40
2018-11-11T14:50:26.583Z,53.40
2018-11-11T14:52:56.048Z,53.40
2018-11-11T14:55:26.435Z,53.40
2018-11-11T14:57:55.919Z,53.40
2018-11-11T15:00:26.654Z,53.40
2018-11-11T15:03:08.909Z,53.30
2018-11-11T15:05:38.194Z,53.30
2018-11-11T15:08:07.643Z,53.40
2018-11-11T15:10:37.225Z,53.30
2018-11-11T15:13:07.372Z,53.40
2018-11-11T15:15:36.512Z,53.40
2018-11-11T15:18:06.655Z,53.40
2018-11-11T15:20:36.324Z,53.30
2018-11-11T15:23:05.776Z,53.30
2018-11-11T15:25:35.483Z,53.30
2018-11-11T15:28:05.022Z,53.30
2018-11-11T15:30:35.331Z,53.20
2018-11-11T15:33:05.544Z,53.20
2018-11-11T15:35:34.735Z,53.20
2018-11-11T15:38:03.992Z,53.10
2018-11-11T15:40:34.736Z,53.10
2018-11-11T15:43:03.991Z,53.10
2018-11-11T15:45:34.026Z,53.10
2018-11-11T15:48:04.191Z,53.10
2018-11-11T15:50:34.359Z,53.10
2018-11-11T15:53:06.152Z,53.10
2018-11-11T15:55:36.505Z,53.00
2018-11-11T15:58:06.394Z,53.00
2018-11-11T16:00:37.459Z,53.00
2018-11-11T16:03:06.732Z,52.90
2018-11-11T16:05:36.073Z,53.00
2018-11-11T16:08:06.169Z,52.90
2018-11-11T16:10:35.643Z,52.90
2018-11-11T16:13:04.986Z,52.90
2018-11-11T16:15:38.650Z,52.90
2018-11-11T16:18:09.551Z,52.90
2018-11-11T16:20:42.656Z,52.90
2018-11-11T16:23:11.951Z,52.80
2018-11-11T16:25:41.489Z,52.80
2018-11-11T16:28:10.929Z,52.80
2018-11-11T16:30:40.347Z,52.80
2018-11-11T16:33:10.306Z,52.70
2018-11-11T16:35:39.659Z,52.70
2018-11-11T16:38:08.949Z,52.70
2018-11-11T16:40:38.640Z,52.60
2018-11-11T16:43:08.028Z,52.60
2018-11-11T16:45:37.890Z,52.70
2018-11-11T16:48:07.562Z,52.80
2018-11-11T16:50:37.609Z,52.50
2018-11-11T16:53:08.140Z,52.50
2018-11-11T16:55:37.593Z,53.10
2018-11-11T16:58:07.175Z,52.50
2018-11-11T17:00:37.338Z,52.60
2018-11-11T17:03:07.758Z,52.50
2018-11-11T17:05:37.772Z,52.50
2018-11-11T17:08:07.389Z,52.60
2018-11-11T17:10:37.846Z,52.50
2018-11-11T17:13:09.564Z,52.50
2018-11-11T17:15:39.081Z,52.40
2018-11-11T17:18:08.025Z,52.40
2018-11-11T17:20:37.559Z,52.40
2018-11-11T17:23:07.977Z,52.40
2018-11-11T17:25:37.225Z,52.40
2018-11-11T17:28:06.836Z,52.40
2018-11-11T17:30:36.188Z,52.30
2018-11-11T17:33:06.050Z,52.30
2018-11-11T17:35:35.040Z,52.30
2018-11-11T17:38:04.978Z,52.90
2018-11-11T17:40:34.246Z,52.30
2018-11-11T17:43:03.381Z,52.30
2018-11-11T17:45:33.434Z,52.20
2018-11-11T17:48:02.660Z,52.20
2018-11-11T17:50:33.119Z,52.20
2018-11-11T17:53:03.652Z,52.20
2018-11-11T17:55:32.889Z,52.70
2018-11-11T17:58:02.199Z,52.20
2018-11-11T18:00:32.067Z,52.10
2018-11-11T18:03:02.171Z,52.10
2018-11-11T18:05:32.719Z,52.00
2018-11-11T18:08:01.822Z,52.00
2018-11-11T18:10:31.345Z,52.10
2018-11-11T18:13:00.843Z,52.00
2018-11-11T18:15:31.812Z,52.00
2018-11-11T18:18:01.355Z,52.00
2018-11-11T18:20:31.982Z,51.90
2018-11-11T18:23:01.705Z,52.00
2018-11-11T18:25:31.193Z,51.90
2018-11-11T18:28:00.869Z,51.90
2018-11-11T18:30:31.441Z,52.00
2018-11-11T18:33:00.938Z,51.90
2018-11-11T18:35:30.962Z,51.90
2018-11-11T18:38:00.117Z,51.90
2018-11-11T18:40:29.874Z,52.10
2018-11-11T18:42:59.253Z,52.10
2018-11-11T18:45:29.546Z,52.10
2018-11-11T18:47:58.779Z,52.20
2018-11-11T18:50:30.266Z,52.20
2018-11-11T18:52:59.927Z,52.30
2018-11-11T18:55:29.117Z,52.30
2018-11-11T18:57:58.465Z,52.20
2018-11-11T19:00:29.213Z,52.20
2018-11-11T19:02:58.732Z,52.20
2018-11-11T19:05:28.378Z,52.20
2018-11-11T19:07:57.713Z,52.30
2018-11-11T19:10:28.170Z,52.30
2018-11-11T19:12:59.732Z,52.30
2018-11-11T19:15:29.040Z,52.30
2018-11-11T19:17:58.239Z,52.90
2018-11-11T19:20:27.919Z,52.30
2018-11-11T19:22:57.186Z,52.30
2018-11-11T19:25:27.653Z,52.20
2018-11-11T19:27:58.904Z,52.10
2018-11-11T19:30:28.895Z,52.10
2018-11-11T19:32:57.797Z,52.00
2018-11-11T19:35:28.582Z,52.00
2018-11-11T19:37:58.394Z,51.90
2018-11-11T19:40:28.424Z,52.00
2018-11-11T19:42:58.854Z,52.40
2018-11-11T19:45:28.894Z,51.90
2018-11-11T19:47:58.344Z,51.90
2018-11-11T19:50:28.426Z,52.60
2018-11-11T19:52:59.576Z,51.90
2018-11-11T19:55:28.908Z,51.90
2018-11-11T19:57:58.169Z,51.90
2018-11-11T20:00:30.474Z,52.00
2018-11-11T20:03:00.696Z,52.00
2018-11-11T20:05:30.000Z,51.90
2018-11-11T20:07:59.940Z,51.90
2018-11-11T20:10:29.995Z,51.90
2018-11-11T20:12:59.861Z,51.80
2018-11-11T20:15:29.958Z,51.70
2018-11-11T20:17:59.521Z,52.30
2018-11-11T20:20:31.345Z,51.60
2018-11-11T20:23:00.750Z,51.60
2018-11-11T20:25:29.938Z,51.50
2018-11-11T20:27:59.685Z,51.80
2018-11-11T20:30:30.294Z,51.50
2018-11-11T20:32:59.173Z,51.40
2018-11-11T20:35:29.598Z,51.50
2018-11-11T20:37:58.778Z,51.30
2018-11-11T20:40:28.170Z,51.30
2018-11-11T20:42:57.796Z,51.30
2018-11-11T20:45:28.956Z,51.30
2018-11-11T20:47:58.002Z,51.20
2018-11-11T20:50:28.118Z,51.20
2018-11-11T20:53:00.855Z,51.20
2018-11-11T20:55:30.102Z,51.20
2018-11-11T20:57:59.373Z,51.50
2018-11-11T21:00:31.935Z,51.20
2018-11-11T21:03:01.215Z,51.20
2018-11-11T21:05:30.496Z,51.20
2018-11-11T21:08:00.190Z,51.20
2018-11-11T21:10:30.055Z,51.10
2018-11-11T21:12:59.669Z,51.10
2018-11-11T21:15:30.223Z,51.10
2018-11-11T21:17:59.568Z,51.10
2018-11-11T21:20:30.013Z,51.10
2018-11-11T21:22:59.669Z,51.00
2018-11-11T21:25:28.930Z,51.70
2018-11-11T21:27:57.867Z,51.10
2018-11-11T21:30:28.728Z,51.00
2018-11-11T21:32:58.127Z,51.10
2018-11-11T21:35:27.250Z,50.90
2018-11-11T21:37:56.716Z,50.90
2018-11-11T21:40:26.620Z,51.00
2018-11-11T21:42:56.229Z,50.90
2018-11-11T21:45:26.205Z,50.90
2018-11-11T21:47:55.450Z,50.90
2018-11-11T21:50:25.747Z,50.90
2018-11-11T21:53:06.255Z,50.90
2018-11-11T21:55:35.677Z,50.90
2018-11-11T21:58:05.272Z,50.90
2018-11-11T22:00:34.340Z,50.80
2018-11-11T22:03:03.509Z,50.80
2018-11-11T22:05:32.667Z,50.80
2018-11-11T22:08:01.668Z,50.80
2018-11-11T22:10:31.149Z,50.80
2018-11-11T22:13:00.247Z,50.90
2018-11-11T22:15:29.642Z,50.80
2018-11-11T22:17:58.901Z,50.80
2018-11-11T22:20:28.123Z,50.80
2018-11-11T22:22:57.768Z,50.80
2018-11-11T22:25:27.378Z,50.70
2018-11-11T22:27:56.796Z,50.70
2018-11-11T22:30:26.210Z,50.70
2018-11-11T22:32:55.642Z,50.70
2018-11-11T22:35:24.739Z,50.70
2018-11-11T22:37:54.188Z,50.70
2018-11-11T22:40:23.775Z,50.70
2018-11-11T22:42:52.882Z,50.60
2018-11-11T22:45:22.041Z,50.60
2018-11-11T22:47:51.399Z,50.60
2018-11-11T22:50:20.497Z,50.50
2018-11-11T22:52:50.146Z,50.50
2018-11-11T22:55:19.503Z,50.50
2018-11-11T22:57:48.893Z,50.50
2018-11-11T23:00:23.562Z,50.50
2018-11-11T23:02:52.987Z,50.50
2018-11-11T23:05:22.544Z,50.50
2018-11-11T23:07:52.131Z,50.50
2018-11-11T23:10:21.381Z,50.50
2018-11-11T23:12:50.945Z,50.50
2018-11-11T23:15:21.840Z,50.50
2018-11-11T23:17:51.595Z,50.50
2018-11-11T23:20:21.191Z,50.50
2018-11-11T23:22:50.879Z,50.50
2018-11-11T23:25:20.231Z,50.50
2018-11-11T23:27:49.879Z,50.50
2018-11-11T23:30:23.177Z,49.90
2018-11-11T23:32:52.632Z,50.50
2018-11-11T23:35:23.720Z,50.40
2018-11-11T23:37:53.160Z,50.40
2018-11-11T23:40:22.730Z,50.40
2018-11-11T23:42:51.922Z,50.50
2018-11-11T23:45:21.936Z,50.40
2018-11-11T23:47:51.491Z,50.50
2018-11-11T23:50:20.857Z,50.40
2018-11-11T23:52:50.288Z,50.40
2018-11-11T23:55:20.223Z,50.50
2018-11-11T23:57:49.702Z,50.40
